createdAt,value
2023-03-26T00:02:52.867Z,850.00
2023-03-26T00:05:52.913Z,845.00
2023-03-26T00:06:52.697Z,846.00
2023-03-26T00:08:52.666Z,846.00
2023-03-26T00:10:52.609Z,844.00
2023-03-26T00:11:52.591Z,843.00
2023-03-26T00:14:52.501Z,843.00
2023-03-26T00:15:52.655Z,845.00
2023-03-26T00:17:52.468Z,843.00
2023-03-26T00:18:52.408Z,840.00
2023-03-26T00:22:52.337Z,842.00
2023-03-26T00:23:52.307Z,843.00
2023-03-26T00:25:52.403Z,843.00
2023-03-26T00:28:52.191Z,845.00
2023-03-26T00:29:52.153Z,846.00
2023-03-26T00:30:52.236Z,845.00
2023-03-26T00:33:52.066Z,848.00
2023-03-26T00:36:51.987Z,848.00
2023-03-26T00:37:51.961Z,847.00
2023-03-26T00:38:51.928Z,845.00
2023-03-26T00:39:51.906Z,847.00
2023-03-26T00:40:51.900Z,843.00
2023-03-26T00:41:51.863Z,843.00
2023-03-26T00:45:51.867Z,838.00
2023-03-26T00:46:51.787Z,839.00
2023-03-26T00:47:51.780Z,839.00
2023-03-26T00:49:51.674Z,841.00
2023-03-26T00:53:51.577Z,846.00
2023-03-26T00:56:51.543Z,845.00
2023-03-26T00:57:51.499Z,845.00
2023-03-26T00:58:51.489Z,842.00
2023-03-26T01:00:51.456Z,844.00
2023-03-26T01:02:51.519Z,843.00
2023-03-26T01:04:51.409Z,842.00
2023-03-26T01:05:51.589Z,843.00
2023-03-26T01:06:51.466Z,844.00
2023-03-26T01:07:51.532Z,844.00
2023-03-26T01:08:51.547Z,847.00
2023-03-26T01:09:51.609Z,845.00
2023-03-26T01:10:51.613Z,843.00
2023-03-26T01:11:51.658Z,842.00
2023-03-26T01:12:51.714Z,838.00
2023-03-26T01:13:51.707Z,838.00
2023-03-26T01:14:52.080Z,841.00
2023-03-26T01:15:51.869Z,842.00
2023-03-26T01:16:51.855Z,841.00
2023-03-26T01:17:51.894Z,843.00
2023-03-26T01:18:51.911Z,843.00
2023-03-26T01:19:51.908Z,841.00
2023-03-26T01:20:51.932Z,840.00
2023-03-26T01:21:51.961Z,836.00
2023-03-26T01:22:51.999Z,833.00
2023-03-26T01:23:52.044Z,833.00
2023-03-26T01:24:52.094Z,833.00
2023-03-26T01:25:52.247Z,834.00
2023-03-26T01:26:52.108Z,835.00
2023-03-26T01:27:52.137Z,835.00
2023-03-26T01:28:52.187Z,836.00
2023-03-26T01:29:52.228Z,837.00
2023-03-26T01:30:52.274Z,835.00
2023-03-26T01:31:52.301Z,835.00
2023-03-26T01:32:52.412Z,834.00
2023-03-26T01:33:52.340Z,833.00
2023-03-26T01:34:52.358Z,834.00
2023-03-26T01:35:52.583Z,834.00
2023-03-26T01:36:52.454Z,834.00
2023-03-26T01:37:52.565Z,834.00
2023-03-26T01:38:52.547Z,833.00
2023-03-26T01:39:52.534Z,835.00
2023-03-26T01:40:52.572Z,836.00
2023-03-26T01:41:52.617Z,832.00
2023-03-26T01:42:52.641Z,834.00
2023-03-26T01:43:52.659Z,834.00
2023-03-26T01:44:52.680Z,836.00
2023-03-26T01:45:52.852Z,836.00
2023-03-26T01:46:52.877Z,832.00
2023-03-26T01:47:52.849Z,832.00
2023-03-26T01:48:52.809Z,833.00
2023-03-26T01:49:52.827Z,833.00
2023-03-26T01:50:52.881Z,837.00
2023-03-26T01:51:52.885Z,840.00
2023-03-26T01:52:52.906Z,838.00
2023-03-26T01:53:52.968Z,836.00
2023-03-26T01:54:52.976Z,835.00
2023-03-26T01:55:53.176Z,833.00
2023-03-26T01:56:53.094Z,832.00
2023-03-26T01:57:53.075Z,832.00
2023-03-26T01:58:53.118Z,833.00
2023-03-26T01:59:53.147Z,833.00
2023-03-26T02:00:53.211Z,835.00
2023-03-26T02:01:53.251Z,830.00
2023-03-26T02:02:53.429Z,827.00
2023-03-26T02:03:53.279Z,827.00
2023-03-26T02:04:53.433Z,822.00
2023-03-26T02:05:53.484Z,824.00
2023-03-26T02:06:53.402Z,828.00
2023-03-26T02:07:53.424Z,829.00
2023-03-26T02:08:53.438Z,826.00
2023-03-26T02:09:53.463Z,829.00
2023-03-26T02:10:53.507Z,826.00
2023-03-26T02:11:53.542Z,825.00
2023-03-26T02:12:53.580Z,822.00
2023-03-26T02:13:53.622Z,823.00
2023-03-26T02:14:53.639Z,818.00
2023-03-26T02:15:53.909Z,819.00
2023-03-26T02:16:53.725Z,819.00
2023-03-26T02:17:53.791Z,820.00
2023-03-26T02:18:53.775Z,817.00
2023-03-26T02:19:53.791Z,816.00
2023-03-26T02:20:53.863Z,814.00
2023-03-26T02:21:53.894Z,816.00
2023-03-26T02:22:53.903Z,816.00
2023-03-26T02:23:53.943Z,817.00
2023-03-26T02:24:53.971Z,819.00
2023-03-26T02:25:54.073Z,821.00
2023-03-26T02:26:54.041Z,819.00
2023-03-26T02:27:54.036Z,822.00
2023-03-26T02:28:54.069Z,822.00
2023-03-26T02:29:54.106Z,822.00
2023-03-26T02:30:54.156Z,821.00
2023-03-26T02:31:54.251Z,821.00
2023-03-26T02:32:54.446Z,821.00
2023-03-26T02:33:54.246Z,819.00
2023-03-26T02:34:54.287Z,817.00
2023-03-26T02:35:54.570Z,822.00
2023-03-26T02:39:54.210Z,822.00
2023-03-26T02:41:54.168Z,824.00
2023-03-26T02:43:54.110Z,822.00
2023-03-26T02:44:54.122Z,819.00
2023-03-26T02:45:54.335Z,821.00
2023-03-26T02:46:54.059Z,821.00
2023-03-26T02:51:53.952Z,814.00
2023-03-26T02:52:53.941Z,814.00
2023-03-26T02:53:53.936Z,815.00
2023-03-26T02:54:53.950Z,812.00
2023-03-26T02:55:54.187Z,810.00
2023-03-26T02:56:54.023Z,803.00
2023-03-26T02:59:53.944Z,745.00
2023-03-26T03:01:53.894Z,725.00
2023-03-26T03:02:53.876Z,717.00
2023-03-26T03:03:53.811Z,709.00
2023-03-26T03:05:53.939Z,679.00
2023-03-26T03:08:53.690Z,647.00
2023-03-26T03:10:53.640Z,631.00
2023-03-26T03:11:53.611Z,628.00
2023-03-26T03:12:53.597Z,624.00
2023-03-26T03:13:53.590Z,618.00
2023-03-26T03:15:53.726Z,604.00
2023-03-26T03:16:53.542Z,596.00
2023-03-26T03:20:53.442Z,580.00
2023-03-26T03:21:53.442Z,575.00
2023-03-26T03:22:53.409Z,572.00
2023-03-26T03:23:53.356Z,570.00
2023-03-26T03:24:53.352Z,566.00
2023-03-26T03:25:53.713Z,565.00
2023-03-26T03:26:53.345Z,562.00
2023-03-26T03:30:53.385Z,552.00
2023-03-26T03:31:53.208Z,551.00
2023-03-26T03:32:53.229Z,551.00
2023-03-26T03:33:53.209Z,549.00
2023-03-26T03:34:53.170Z,546.00
2023-03-26T03:36:53.103Z,540.00
2023-03-26T03:37:53.100Z,539.00
2023-03-26T03:42:53.014Z,525.00
2023-03-26T03:43:52.991Z,525.00
2023-03-26T03:44:53.011Z,524.00
2023-03-26T03:45:53.097Z,525.00
2023-03-26T03:47:53.026Z,522.00
2023-03-26T03:48:52.921Z,522.00
2023-03-26T03:50:52.888Z,527.00
2023-03-26T03:51:52.877Z,525.00
2023-03-26T03:52:52.855Z,522.00
2023-03-26T03:53:52.867Z,521.00
2023-03-26T03:54:52.826Z,519.00
2023-03-26T03:58:52.739Z,515.00
2023-03-26T03:59:52.723Z,514.00
2023-03-26T04:01:52.689Z,512.00
2023-03-26T04:02:52.760Z,510.00
2023-03-26T04:03:52.789Z,508.00
2023-03-26T04:04:52.636Z,507.00
2023-03-26T04:05:52.761Z,508.00
2023-03-26T04:10:52.577Z,505.00
2023-03-26T04:11:52.562Z,507.00
2023-03-26T04:12:52.505Z,508.00
2023-03-26T04:13:52.500Z,508.00
2023-03-26T04:14:52.537Z,508.00
2023-03-26T04:15:52.516Z,505.00
2023-03-26T04:20:52.448Z,495.00
2023-03-26T04:21:52.340Z,496.00
2023-03-26T04:22:52.309Z,498.00
2023-03-26T04:23:52.319Z,500.00
2023-03-26T04:24:52.289Z,503.00
2023-03-26T04:26:52.269Z,505.00
2023-03-26T04:30:52.193Z,495.00
2023-03-26T04:31:52.246Z,493.00
2023-03-26T04:32:52.218Z,496.00
2023-03-26T04:33:52.155Z,497.00
2023-03-26T04:34:52.138Z,498.00
2023-03-26T04:36:52.196Z,496.00
2023-03-26T04:40:52.037Z,496.00
2023-03-26T04:41:52.020Z,496.00
2023-03-26T04:42:52.005Z,496.00
2023-03-26T04:43:51.982Z,495.00
2023-03-26T04:44:51.974Z,492.00
2023-03-26T04:46:51.995Z,485.00
2023-03-26T04:48:51.931Z,488.00
2023-03-26T04:51:51.887Z,486.00
2023-03-26T04:52:51.897Z,485.00
2023-03-26T04:53:51.870Z,484.00
2023-03-26T04:54:51.835Z,482.00
2023-03-26T04:56:51.868Z,487.00
2023-03-26T04:59:51.773Z,486.00
2023-03-26T05:02:51.719Z,483.00
2023-03-26T05:03:51.740Z,483.00
2023-03-26T05:05:51.686Z,479.00
2023-03-26T05:06:51.664Z,479.00
2023-03-26T05:07:51.654Z,478.00
2023-03-26T05:08:51.644Z,478.00
2023-03-26T05:10:51.613Z,474.00
2023-03-26T05:13:51.569Z,476.00
2023-03-26T05:14:51.596Z,475.00
2023-03-26T05:15:51.535Z,474.00
2023-03-26T05:16:51.557Z,474.00
2023-03-26T05:17:51.620Z,474.00
2023-03-26T05:21:51.461Z,474.00
2023-03-26T05:24:51.414Z,469.00
2023-03-26T05:25:51.413Z,468.00
2023-03-26T05:26:51.360Z,467.00
2023-03-26T05:29:51.361Z,465.00
2023-03-26T05:30:51.327Z,466.00
2023-03-26T05:32:51.338Z,467.00
2023-03-26T05:33:51.304Z,470.00
2023-03-26T05:34:51.291Z,469.00
2023-03-26T05:40:51.176Z,469.00
2023-03-26T05:41:51.193Z,466.00
2023-03-26T05:42:51.172Z,468.00
2023-03-26T05:43:51.153Z,466.00
2023-03-26T05:44:51.136Z,466.00
2023-03-26T05:46:51.110Z,464.00
2023-03-26T05:47:51.153Z,463.00
2023-03-26T05:51:51.426Z,464.00
2023-03-26T05:52:51.070Z,462.00
2023-03-26T05:53:51.053Z,463.00
2023-03-26T05:54:51.041Z,463.00
2023-03-26T05:55:51.075Z,461.00
2023-03-26T05:56:51.079Z,461.00
2023-03-26T05:57:51.025Z,464.00
2023-03-26T06:02:51.022Z,465.00
2023-03-26T06:03:52.017Z,465.00
2023-03-26T06:04:51.088Z,462.00
2023-03-26T06:05:50.964Z,460.00
2023-03-26T06:06:50.963Z,462.00
2023-03-26T06:07:50.999Z,462.00
2023-03-26T06:09:00.969Z,461.00
2023-03-26T06:09:51.973Z,461.00
2023-03-26T06:12:50.953Z,455.00
2023-03-26T06:14:50.946Z,453.00
2023-03-26T06:15:50.969Z,450.00
2023-03-26T06:16:50.950Z,449.00
2023-03-26T06:17:50.976Z,447.00
2023-03-26T06:20:50.916Z,454.00
2023-03-26T06:21:50.926Z,453.00
2023-03-26T06:22:50.916Z,454.00
2023-03-26T06:23:50.913Z,454.00
2023-03-26T06:24:50.889Z,458.00
2023-03-26T06:25:50.912Z,458.00
2023-03-26T06:26:51.334Z,457.00
2023-03-26T06:27:50.889Z,457.00
2023-03-26T06:28:50.890Z,460.00
2023-03-26T06:32:50.894Z,452.00
2023-03-26T06:33:50.887Z,450.00
2023-03-26T06:34:50.866Z,452.00
2023-03-26T06:35:50.886Z,454.00
2023-03-26T06:37:50.889Z,450.00
2023-03-26T06:38:50.843Z,450.00
2023-03-26T06:39:50.842Z,451.00
2023-03-26T06:44:50.889Z,451.00
2023-03-26T06:46:50.813Z,449.00
2023-03-26T06:47:50.815Z,446.00
2023-03-26T06:48:50.818Z,445.00
2023-03-26T06:49:50.787Z,444.00
2023-03-26T06:50:50.853Z,444.00
2023-03-26T06:51:50.791Z,443.00
2023-03-26T06:54:50.763Z,441.00
2023-03-26T06:57:50.766Z,440.00
2023-03-26T06:58:50.764Z,442.00
2023-03-26T06:59:50.784Z,441.00
2023-03-26T07:00:50.870Z,440.00
2023-03-26T07:02:50.780Z,440.00
2023-03-26T07:03:50.802Z,437.00
2023-03-26T07:04:50.732Z,440.00
2023-03-26T07:09:50.704Z,441.00
2023-03-26T07:11:50.702Z,438.00
2023-03-26T07:12:50.692Z,439.00
2023-03-26T07:13:50.666Z,439.00
2023-03-26T07:17:50.642Z,438.00
2023-03-26T07:20:50.582Z,438.00
2023-03-26T07:21:50.657Z,436.00
2023-03-26T07:22:50.560Z,437.00
2023-03-26T07:23:50.544Z,439.00
2023-03-26T07:26:50.529Z,437.00
2023-03-26T07:29:03.650Z,432.00
2023-03-26T07:29:51.483Z,430.00
2023-03-26T07:31:50.467Z,435.00
2023-03-26T07:32:50.535Z,432.00
2023-03-26T07:34:50.458Z,432.00
2023-03-26T07:35:50.489Z,431.00
2023-03-26T07:37:50.455Z,434.00
2023-03-26T07:38:50.434Z,433.00
2023-03-26T07:43:50.388Z,441.00
2023-03-26T07:44:50.402Z,440.00
2023-03-26T07:45:50.423Z,440.00
2023-03-26T07:47:50.409Z,445.00
2023-03-26T07:48:50.401Z,446.00
2023-03-26T07:52:50.400Z,441.00
2023-03-26T07:53:50.345Z,440.00
2023-03-26T07:54:50.329Z,439.00
2023-03-26T07:57:50.329Z,441.00
2023-03-26T07:58:50.327Z,442.00
2023-03-26T07:59:50.323Z,441.00
2023-03-26T08:02:50.379Z,436.00
2023-03-26T08:03:50.367Z,437.00
2023-03-26T08:04:50.312Z,436.00
2023-03-26T08:05:50.268Z,435.00
2023-03-26T08:07:50.403Z,439.00
2023-03-26T08:08:50.231Z,439.00
2023-03-26T08:13:50.186Z,440.00
2023-03-26T08:14:50.185Z,439.00
2023-03-26T08:15:50.226Z,439.00
2023-03-26T08:16:50.158Z,438.00
2023-03-26T08:17:50.183Z,436.00
2023-03-26T08:18:50.158Z,435.00
2023-03-26T08:25:50.133Z,436.00
2023-03-26T08:26:50.080Z,436.00
2023-03-26T08:28:50.057Z,438.00
2023-03-26T08:29:50.121Z,436.00
2023-03-26T08:30:50.113Z,434.00
2023-03-26T08:34:49.999Z,436.00
2023-03-26T08:35:50.072Z,441.00
2023-03-26T08:36:49.968Z,442.00
2023-03-26T08:39:49.943Z,441.00
2023-03-26T08:41:49.935Z,440.00
2023-03-26T08:42:49.893Z,439.00
2023-03-26T08:44:49.882Z,435.00
2023-03-26T08:45:49.863Z,436.00
2023-03-26T08:46:49.886Z,434.00
2023-03-26T08:51:49.799Z,435.00
2023-03-26T08:52:49.773Z,435.00
2023-03-26T08:53:49.792Z,437.00
2023-03-26T08:54:49.780Z,437.00
2023-03-26T08:55:49.731Z,435.00
2023-03-26T08:56:49.772Z,435.00
2023-03-26T09:01:49.651Z,436.00
2023-03-26T09:02:49.697Z,438.00
2023-03-26T09:03:49.652Z,437.00
2023-03-26T09:04:49.601Z,437.00
2023-03-26T09:05:49.574Z,437.00
2023-03-26T09:06:49.589Z,434.00
2023-03-26T09:07:49.565Z,436.00
2023-03-26T09:08:53.781Z,435.00
2023-03-26T09:09:50.531Z,437.00
2023-03-26T09:11:49.496Z,439.00
2023-03-26T09:14:49.477Z,439.00
2023-03-26T09:16:49.446Z,434.00
2023-03-26T09:17:49.530Z,436.00
2023-03-26T09:19:49.380Z,433.00
2023-03-26T09:20:49.379Z,433.00
2023-03-26T09:21:49.338Z,433.00
2023-03-26T09:24:49.283Z,436.00
2023-03-26T09:26:49.224Z,437.00
2023-03-26T09:27:49.215Z,435.00
2023-03-26T09:28:49.192Z,436.00
2023-03-26T09:29:49.191Z,436.00
2023-03-26T09:30:49.161Z,430.00
2023-03-26T09:32:49.177Z,427.00
2023-03-26T09:35:49.102Z,431.00
2023-03-26T09:36:49.030Z,431.00
2023-03-26T09:37:57.069Z,430.00
2023-03-26T09:38:49.999Z,429.00
2023-03-26T09:41:48.942Z,430.00
2023-03-26T09:42:48.915Z,428.00
2023-03-26T09:44:48.916Z,428.00
2023-03-26T09:45:48.877Z,429.00
2023-03-26T09:46:48.827Z,430.00
2023-03-26T09:48:48.795Z,427.00
2023-03-26T09:49:48.798Z,427.00
2023-03-26T09:51:48.736Z,430.00
2023-03-26T09:52:48.722Z,431.00
2023-03-26T09:54:48.707Z,431.00
2023-03-26T09:56:48.663Z,430.00
2023-03-26T09:57:48.637Z,435.00
2023-03-26T09:59:48.632Z,431.00
2023-03-26T10:00:48.592Z,429.00
2023-03-26T10:01:48.559Z,429.00
2023-03-26T10:05:48.483Z,431.00
2023-03-26T10:09:48.402Z,430.00
2023-03-26T10:10:48.386Z,428.00
2023-03-26T10:11:48.381Z,429.00
2023-03-26T10:12:48.356Z,429.00
2023-03-26T10:13:48.308Z,428.00
2023-03-26T10:17:48.255Z,424.00
2023-03-26T10:18:48.238Z,424.00
2023-03-26T10:19:48.237Z,423.00
2023-03-26T10:21:48.150Z,421.00
2023-03-26T10:22:48.135Z,422.00
2023-03-26T10:23:48.120Z,422.00
2023-03-26T10:27:48.070Z,425.00
2023-03-26T10:28:48.037Z,424.00
2023-03-26T10:29:48.029Z,424.00
2023-03-26T10:30:48.029Z,422.00
2023-03-26T10:31:47.964Z,420.00
2023-03-26T10:32:47.994Z,419.00
2023-03-26T10:33:47.931Z,422.00
2023-03-26T10:37:47.834Z,423.00
2023-03-26T10:38:47.834Z,423.00
2023-03-26T10:39:47.796Z,425.00
2023-03-26T10:40:47.770Z,424.00
2023-03-26T10:41:47.757Z,424.00
2023-03-26T10:43:57.878Z,424.00
2023-03-26T10:44:48.696Z,423.00
2023-03-26T10:47:47.675Z,425.00
2023-03-26T10:48:47.628Z,423.00
2023-03-26T10:49:47.596Z,425.00
2023-03-26T10:50:47.584Z,426.00
2023-03-26T10:52:47.528Z,427.00
2023-03-26T10:53:47.518Z,427.00
2023-03-26T10:59:47.414Z,418.00
2023-03-26T11:00:47.403Z,418.00
2023-03-26T11:01:47.376Z,418.00
2023-03-26T11:02:47.357Z,420.00
2023-03-26T11:04:47.289Z,421.00
2023-03-26T11:08:47.211Z,420.00
2023-03-26T11:09:47.186Z,423.00
2023-03-26T11:10:47.158Z,423.00
2023-03-26T11:12:47.094Z,422.00
2023-03-26T11:13:47.106Z,423.00
2023-03-26T11:17:46.997Z,421.00
2023-03-26T11:19:46.903Z,425.00
2023-03-26T11:21:46.866Z,424.00
2023-03-26T11:22:46.858Z,423.00
2023-03-26T11:24:46.800Z,422.00
2023-03-26T11:25:46.784Z,421.00
2023-03-26T11:29:46.705Z,423.00
2023-03-26T11:30:46.707Z,423.00
2023-03-26T11:31:46.697Z,425.00
2023-03-26T11:33:47.031Z,425.00
2023-03-26T11:35:46.637Z,424.00
2023-03-26T11:38:46.515Z,420.00
2023-03-26T11:40:46.484Z,421.00
2023-03-26T11:41:46.451Z,420.00
2023-03-26T11:42:46.418Z,423.00
2023-03-26T11:43:46.392Z,424.00
2023-03-26T11:45:46.365Z,426.00
2023-03-26T11:50:46.267Z,427.00
2023-03-26T11:51:46.235Z,426.00
2023-03-26T11:52:47.026Z,427.00
2023-03-26T11:53:46.186Z,424.00
2023-03-26T11:54:46.186Z,424.00
2023-03-26T11:55:46.161Z,422.00
2023-03-26T11:57:05.355Z,416.00
2023-03-26T11:57:47.095Z,418.00
2023-03-26T12:01:46.035Z,423.00
2023-03-26T12:02:46.011Z,423.00
2023-03-26T12:03:45.974Z,425.00
2023-03-26T12:04:45.979Z,427.00
2023-03-26T12:07:45.903Z,426.00
2023-03-26T12:10:45.814Z,426.00
2023-03-26T12:12:45.757Z,428.00
2023-03-26T12:13:45.732Z,426.00
2023-03-26T12:14:45.737Z,425.00
2023-03-26T12:17:45.678Z,431.00
2023-03-26T12:19:45.580Z,431.00
2023-03-26T12:20:45.550Z,431.00
2023-03-26T12:21:45.520Z,430.00
2023-03-26T12:24:45.434Z,428.00
2023-03-26T12:26:45.393Z,427.00
2023-03-26T12:28:45.343Z,430.00
2023-03-26T12:29:45.311Z,429.00
2023-03-26T12:30:45.284Z,428.00
2023-03-26T12:31:45.303Z,426.00
2023-03-26T12:35:45.216Z,429.00
2023-03-26T12:36:45.175Z,430.00
2023-03-26T12:37:45.140Z,432.00
2023-03-26T12:44:42.447Z,434.00
2023-03-26T12:44:50.407Z,432.00
2023-03-26T12:44:55.536Z,432.00
2023-03-26T12:45:46.030Z,430.00
2023-03-26T12:49:44.876Z,426.00
2023-03-26T12:50:44.840Z,427.00
2023-03-26T12:51:44.835Z,427.00
2023-03-26T12:53:44.782Z,428.00
2023-03-26T12:54:44.748Z,429.00
2023-03-26T12:55:44.855Z,432.00
2023-03-26T12:56:44.738Z,431.00
2023-03-26T12:59:44.647Z,433.00
2023-03-26T13:00:44.618Z,432.00
2023-03-26T13:02:44.622Z,431.00
2023-03-26T13:04:52.043Z,435.00
2023-03-26T13:05:45.514Z,434.00
2023-03-26T13:08:44.478Z,429.00
2023-03-26T13:10:44.401Z,432.00
2023-03-26T13:11:44.369Z,431.00
2023-03-26T13:12:44.352Z,433.00
2023-03-26T13:14:44.300Z,435.00
2023-03-26T13:18:44.236Z,439.00
2023-03-26T13:19:44.211Z,438.00
2023-03-26T13:20:44.172Z,439.00
2023-03-26T13:21:44.141Z,438.00
2023-03-26T13:23:44.116Z,441.00
2023-03-26T13:26:44.027Z,448.00
2023-03-26T13:30:43.972Z,444.00
2023-03-26T13:31:43.926Z,445.00
2023-03-26T13:32:43.935Z,445.00
2023-03-26T13:33:43.885Z,445.00
2023-03-26T13:35:43.944Z,445.00
2023-03-26T13:36:43.900Z,448.00
2023-03-26T13:37:43.798Z,451.00
2023-03-26T13:40:43.734Z,446.00
2023-03-26T13:41:43.736Z,447.00
2023-03-26T13:44:43.661Z,448.00
2023-03-26T13:45:43.640Z,447.00
2023-03-26T13:46:43.664Z,447.00
2023-03-26T13:47:43.632Z,445.00
2023-03-26T13:52:43.559Z,446.00
2023-03-26T13:53:43.472Z,447.00
2023-03-26T13:54:43.447Z,446.00
2023-03-26T13:56:43.611Z,449.00
2023-03-26T13:57:43.380Z,448.00
2023-03-26T14:01:43.338Z,452.00
2023-03-26T14:02:43.317Z,453.00
2023-03-26T14:04:43.213Z,453.00
2023-03-26T14:06:43.166Z,446.00
2023-03-26T14:07:43.149Z,445.00
2023-03-26T14:11:43.087Z,443.00
2023-03-26T14:12:43.044Z,442.00
2023-03-26T14:13:43.038Z,448.00
2023-03-26T14:14:43.011Z,449.00
2023-03-26T14:16:42.981Z,452.00
2023-03-26T14:22:42.852Z,451.00
2023-03-26T14:23:42.822Z,451.00
2023-03-26T14:24:42.802Z,451.00
2023-03-26T14:25:42.792Z,447.00
2023-03-26T14:26:42.757Z,447.00
2023-03-26T14:29:56.284Z,448.00
2023-03-26T14:30:43.710Z,452.00
2023-03-26T14:32:42.696Z,453.00
2023-03-26T14:34:42.705Z,452.00
2023-03-26T14:35:42.675Z,454.00
2023-03-26T14:36:42.604Z,454.00
2023-03-26T14:37:42.597Z,455.00
2023-03-26T14:41:42.473Z,459.00
2023-03-26T14:43:42.441Z,462.00
2023-03-26T14:44:48.722Z,460.00
2023-03-26T14:45:43.400Z,458.00
2023-03-26T14:46:42.498Z,456.00
2023-03-26T14:50:42.301Z,456.00
2023-03-26T14:51:42.303Z,455.00
2023-03-26T14:52:42.284Z,456.00
2023-03-26T14:54:42.234Z,459.00
2023-03-26T14:57:42.189Z,461.00
2023-03-26T15:00:42.144Z,458.00
2023-03-26T15:01:42.097Z,455.00
2023-03-26T15:02:42.084Z,459.00
2023-03-26T15:04:42.003Z,460.00
2023-03-26T15:06:41.967Z,463.00
2023-03-26T15:11:41.858Z,473.00
2023-03-26T15:12:41.829Z,472.00
2023-03-26T15:13:41.814Z,469.00
2023-03-26T15:14:41.781Z,464.00
2023-03-26T15:16:41.876Z,465.00
2023-03-26T15:18:41.687Z,467.00
2023-03-26T15:20:41.665Z,469.00
2023-03-26T15:21:41.649Z,469.00
2023-03-26T15:22:41.618Z,472.00
2023-03-26T15:23:41.585Z,471.00
2023-03-26T15:26:41.549Z,470.00
2023-03-26T15:27:41.520Z,470.00
2023-03-26T15:30:41.454Z,468.00
2023-03-26T15:31:41.479Z,466.00
2023-03-26T15:32:41.480Z,465.00
2023-03-26T15:34:41.395Z,464.00
2023-03-26T15:39:41.281Z,466.00
2023-03-26T15:40:41.305Z,464.00
2023-03-26T15:41:41.232Z,466.00
2023-03-26T15:42:41.201Z,466.00
2023-03-26T15:46:41.113Z,471.00
2023-03-26T15:48:41.074Z,474.00
2023-03-26T15:49:41.059Z,474.00
2023-03-26T15:51:47.250Z,472.00
2023-03-26T15:52:41.994Z,472.00
2023-03-26T15:53:40.979Z,473.00
2023-03-26T15:54:40.951Z,474.00
2023-03-26T15:57:40.909Z,473.00
2023-03-26T15:58:40.884Z,474.00
2023-03-26T15:59:40.898Z,474.00
2023-03-26T16:04:40.827Z,473.00
2023-03-26T16:05:41.787Z,474.00
2023-03-26T16:06:40.729Z,471.00
2023-03-26T16:07:40.714Z,469.00
2023-03-26T16:08:40.696Z,470.00
2023-03-26T16:09:40.687Z,470.00
2023-03-26T16:13:40.607Z,472.00
2023-03-26T16:14:40.620Z,470.00
2023-03-26T16:16:40.556Z,473.00
2023-03-26T16:17:40.533Z,473.00
2023-03-26T16:18:40.512Z,475.00
2023-03-26T16:20:40.479Z,473.00
2023-03-26T16:24:40.435Z,474.00
2023-03-26T16:25:40.419Z,475.00
2023-03-26T16:26:40.392Z,472.00
2023-03-26T16:27:40.400Z,475.00
2023-03-26T16:28:40.372Z,478.00
2023-03-26T16:30:40.365Z,476.00
2023-03-26T16:33:40.485Z,479.00
2023-03-26T16:34:40.298Z,479.00
2023-03-26T16:36:40.297Z,478.00
2023-03-26T16:38:40.242Z,479.00
2023-03-26T16:39:40.234Z,479.00
2023-03-26T16:40:40.241Z,480.00
2023-03-26T16:41:40.181Z,480.00
2023-03-26T16:43:40.157Z,482.00
2023-03-26T16:44:40.210Z,481.00
2023-03-26T16:45:40.139Z,479.00
2023-03-26T16:46:40.152Z,478.00
2023-03-26T16:49:40.070Z,479.00
2023-03-26T16:50:40.067Z,479.00
2023-03-26T16:55:39.964Z,484.00
2023-03-26T16:56:39.950Z,485.00
2023-03-26T16:57:39.939Z,484.00
2023-03-26T16:58:39.914Z,483.00
2023-03-26T16:59:39.886Z,484.00
2023-03-26T17:00:39.869Z,485.00
2023-03-26T17:04:39.773Z,482.00
2023-03-26T17:05:39.770Z,479.00
2023-03-26T17:07:39.729Z,480.00
2023-03-26T17:08:39.701Z,481.00
2023-03-26T17:10:39.638Z,477.00
2023-03-26T17:11:39.646Z,481.00
2023-03-26T17:15:39.552Z,482.00
2023-03-26T17:16:39.540Z,482.00
2023-03-26T17:17:39.555Z,484.00
2023-03-26T17:18:39.567Z,482.00
2023-03-26T17:19:39.441Z,483.00
2023-03-26T17:23:39.904Z,478.00
2023-03-26T17:24:39.325Z,476.00
2023-03-26T17:26:39.296Z,473.00
2023-03-26T17:28:39.256Z,476.00
2023-03-26T17:29:39.253Z,478.00
2023-03-26T17:32:39.209Z,479.00
2023-03-26T17:33:39.527Z,476.00
2023-03-26T17:34:39.183Z,477.00
2023-03-26T17:35:39.307Z,477.00
2023-03-26T17:36:39.268Z,480.00
2023-03-26T17:37:39.301Z,480.00
2023-03-26T17:38:39.372Z,483.00
2023-03-26T17:39:39.393Z,484.00
2023-03-26T17:40:39.425Z,484.00
2023-03-26T17:41:39.456Z,482.00
2023-03-26T17:42:39.547Z,481.00
2023-03-26T17:43:39.532Z,480.00
2023-03-26T17:44:39.561Z,478.00
2023-03-26T17:45:39.644Z,474.00
2023-03-26T17:46:39.652Z,474.00
2023-03-26T17:47:39.679Z,472.00
2023-03-26T17:48:39.745Z,474.00
2023-03-26T17:49:39.751Z,472.00
2023-03-26T17:50:39.793Z,470.00
2023-03-26T17:51:39.824Z,471.00
2023-03-26T17:52:39.865Z,472.00
2023-03-26T17:53:39.927Z,475.00
2023-03-26T17:54:39.946Z,476.00
2023-03-26T17:55:39.970Z,477.00
2023-03-26T17:56:40.020Z,480.00
2023-03-26T17:57:40.151Z,478.00
2023-03-26T17:58:40.082Z,478.00
2023-03-26T17:59:40.128Z,478.00
2023-03-26T18:00:40.160Z,480.00
2023-03-26T18:01:40.375Z,480.00
2023-03-26T18:04:40.320Z,477.00
2023-03-26T18:05:40.345Z,478.00
2023-03-26T18:06:40.406Z,479.00
2023-03-26T18:07:40.455Z,480.00
2023-03-26T18:08:40.484Z,481.00
2023-03-26T18:09:40.510Z,481.00
2023-03-26T18:10:40.570Z,481.00
2023-03-26T18:11:40.600Z,481.00
2023-03-26T18:12:40.738Z,480.00
2023-03-26T18:14:40.731Z,482.00
2023-03-26T18:15:41.529Z,480.00
2023-03-26T18:16:40.777Z,482.00
2023-03-26T18:19:40.703Z,483.00
2023-03-26T18:21:40.650Z,482.00
2023-03-26T18:23:40.639Z,484.00
2023-03-26T18:24:40.691Z,482.00
2023-03-26T18:25:40.706Z,481.00
2023-03-26T18:26:40.749Z,480.00
2023-03-26T18:27:40.789Z,479.00
2023-03-26T18:28:40.820Z,478.00
2023-03-26T18:29:40.860Z,478.00
2023-03-26T18:30:40.882Z,477.00
2023-03-26T18:31:40.968Z,479.00
2023-03-26T18:32:41.012Z,481.00
2023-03-26T18:33:41.004Z,478.00
2023-03-26T18:35:40.989Z,478.00
2023-03-26T18:37:40.925Z,481.00
2023-03-26T18:39:40.877Z,477.00
2023-03-26T18:40:40.874Z,477.00
2023-03-26T18:41:40.833Z,475.00
2023-03-26T18:42:40.897Z,476.00
2023-03-26T18:43:44.702Z,478.00
2023-03-26T18:44:40.778Z,474.00
2023-03-26T18:49:40.690Z,476.00
2023-03-26T18:50:40.686Z,476.00
2023-03-26T18:51:50.045Z,478.00
2023-03-26T18:52:41.648Z,477.00
2023-03-26T18:53:40.592Z,474.00
2023-03-26T18:54:40.578Z,475.00
2023-03-26T18:59:41.228Z,479.00
2023-03-26T19:00:40.463Z,480.00
2023-03-26T19:01:40.447Z,478.00
2023-03-26T19:02:40.458Z,480.00
2023-03-26T19:03:40.521Z,476.00
2023-03-26T19:04:40.356Z,476.00
2023-03-26T19:05:40.334Z,479.00
2023-03-26T19:10:40.236Z,478.00
2023-03-26T19:11:40.222Z,482.00
2023-03-26T19:14:40.167Z,480.00
2023-03-26T19:15:40.144Z,481.00
2023-03-26T19:16:40.191Z,480.00
2023-03-26T19:17:40.201Z,480.00
2023-03-26T19:19:40.069Z,480.00
2023-03-26T19:20:40.064Z,481.00
2023-03-26T19:26:39.941Z,479.00
2023-03-26T19:27:39.918Z,478.00
2023-03-26T19:28:39.894Z,481.00
2023-03-26T19:29:39.878Z,481.00
2023-03-26T19:30:39.946Z,483.00
2023-03-26T19:33:39.812Z,483.00
2023-03-26T19:37:39.734Z,484.00
2023-03-26T19:38:39.733Z,484.00
2023-03-26T19:39:39.719Z,484.00
2023-03-26T19:42:43.315Z,484.00
2023-03-26T19:43:39.666Z,484.00
2023-03-26T19:44:39.626Z,482.00
2023-03-26T19:46:53.821Z,483.00
2023-03-26T19:47:52.038Z,483.00
2023-03-26T19:48:45.314Z,484.00
2023-03-26T19:49:40.558Z,484.00
2023-03-26T19:50:39.543Z,484.00